createdAt,value
2018-07-01T00:00:23.795Z,2.00
2018-07-01T00:02:52.692Z,1.93
2018-07-01T00:05:21.572Z,2.43
2018-07-01T00:07:50.469Z,2.10
2018-07-01T00:10:19.364Z,1.87
2018-07-01T00:12:48.321Z,2.23
2018-07-01T00:15:17.221Z,2.20
2018-07-01T00:17:46.159Z,2.23
2018-07-01T00:20:15.065Z,1.90
2018-07-01T00:22:43.952Z,2.10
2018-07-01T00:25:12.836Z,1.90
2018-07-01T00:27:41.750Z,2.20
2018-07-01T00:30:10.648Z,2.00
2018-07-01T00:32:39.543Z,2.20
2018-07-01T00:35:08.450Z,2.27
2018-07-01T00:37:37.343Z,2.00
2018-07-01T00:40:06.237Z,2.30
2018-07-01T00:42:35.157Z,2.30
2018-07-01T00:45:04.298Z,2.00
2018-07-01T00:47:33.185Z,2.20
2018-07-01T00:50:02.424Z,1.90
2018-07-01T00:52:31.303Z,1.80
2018-07-01T00:55:00.247Z,1.70
2018-07-01T00:57:29.128Z,1.80
2018-07-01T00:59:58.045Z,1.83
2018-07-01T01:02:26.936Z,2.10
2018-07-01T01:04:55.821Z,1.87
2018-07-01T01:07:24.756Z,2.00
2018-07-01T01:09:53.635Z,1.60
2018-07-01T01:12:22.528Z,1.93
2018-07-01T01:14:51.452Z,1.60
2018-07-01T01:17:20.357Z,1.83
2018-07-01T01:19:49.258Z,1.83
2018-07-01T01:22:18.124Z,1.93
2018-07-01T01:24:47.028Z,1.80
2018-07-01T01:27:15.909Z,1.83
2018-07-01T01:29:44.810Z,1.70
2018-07-01T01:32:13.709Z,1.80
2018-07-01T01:34:42.593Z,1.70
2018-07-01T01:37:11.499Z,1.70
2018-07-01T01:39:41.296Z,1.73
2018-07-01T01:42:21.515Z,1.77
2018-07-01T01:44:53.032Z,1.67
2018-07-01T01:47:29.665Z,1.60
2018-07-01T01:50:09.288Z,1.90
2018-07-01T01:52:42.077Z,1.70
2018-07-01T01:56:20.540Z,1.73
2018-07-01T02:00:56.604Z,1.53
2018-07-01T02:03:30.456Z,1.70
2018-07-01T02:06:09.530Z,1.50
2018-07-01T02:08:48.765Z,1.70
2018-07-01T02:11:17.655Z,1.87
2018-07-01T02:13:49.754Z,1.77
2018-07-01T02:16:22.313Z,1.73
2018-07-01T02:18:51.203Z,1.80
2018-07-01T02:21:20.159Z,1.67
2018-07-01T02:23:51.815Z,1.60
2018-07-01T02:26:20.697Z,1.57
2018-07-01T02:28:49.580Z,1.60
2018-07-01T02:31:18.475Z,1.60
2018-07-01T02:33:47.340Z,1.70
2018-07-01T02:36:16.277Z,1.57
2018-07-01T02:38:45.156Z,1.60
2018-07-01T02:41:14.105Z,1.83
2018-07-01T02:43:42.991Z,1.70
2018-07-01T02:46:12.569Z,1.80
2018-07-01T02:48:41.492Z,1.63
2018-07-01T02:51:10.442Z,1.80
2018-07-01T02:53:39.468Z,1.70
2018-07-01T02:56:08.268Z,1.67
2018-07-01T02:58:37.153Z,1.73
2018-07-01T03:01:06.056Z,1.63
2018-07-01T03:03:34.916Z,1.70
2018-07-01T03:06:03.819Z,1.67
2018-07-01T03:08:32.704Z,1.57
2018-07-01T03:11:01.592Z,1.60
2018-07-01T03:13:30.468Z,1.77
2018-07-01T03:15:59.367Z,1.40
2018-07-01T03:18:28.986Z,1.67
2018-07-01T03:20:57.867Z,1.57
2018-07-01T03:23:26.743Z,1.70
2018-07-01T03:25:55.622Z,1.73
2018-07-01T03:28:24.487Z,1.70
2018-07-01T03:30:53.373Z,1.60
2018-07-01T03:33:22.261Z,1.80
2018-07-01T03:35:51.132Z,1.40
2018-07-01T03:38:20.009Z,1.83
2018-07-01T03:40:48.876Z,1.80
2018-07-01T03:43:17.779Z,1.50
2018-07-01T03:45:46.724Z,1.80
2018-07-01T03:48:15.608Z,1.73
2018-07-01T03:50:44.480Z,1.70
2018-07-01T03:53:13.363Z,1.80
2018-07-01T03:55:42.258Z,1.50
2018-07-01T03:58:11.170Z,1.40
2018-07-01T04:00:40.044Z,1.80
2018-07-01T04:03:08.966Z,1.70
2018-07-01T04:05:37.909Z,1.57
2018-07-01T04:08:06.794Z,1.67
2018-07-01T04:10:35.692Z,1.50
2018-07-01T04:13:04.576Z,1.83
2018-07-01T04:15:33.477Z,1.63
2018-07-01T04:18:18.598Z,1.67
2018-07-01T04:20:47.448Z,1.60
2018-07-01T04:23:16.995Z,1.60
2018-07-01T04:25:45.955Z,1.70
2018-07-01T04:28:14.957Z,1.53
2018-07-01T04:30:44.617Z,1.90
2018-07-01T04:33:32.085Z,1.80
2018-07-01T04:36:13.477Z,1.70
2018-07-01T04:38:42.624Z,1.70
2018-07-01T04:41:11.671Z,1.70
2018-07-01T04:43:40.947Z,1.53
2018-07-01T04:46:10.169Z,1.87
2018-07-01T04:48:39.242Z,1.60
2018-07-01T04:54:28.318Z,1.73
2018-07-01T04:57:10.162Z,1.50
2018-07-01T04:59:39.186Z,1.60
2018-07-01T05:02:08.247Z,1.50
2018-07-01T05:04:37.214Z,1.60
2018-07-01T05:07:06.308Z,1.40
2018-07-01T05:09:54.204Z,1.57
2018-07-01T05:12:23.110Z,1.67
2018-07-01T05:17:57.882Z,1.70
2018-07-01T05:20:26.809Z,1.60
2018-07-01T05:22:56.034Z,1.73
2018-07-01T05:25:25.302Z,1.50
2018-07-01T05:27:54.732Z,1.70
2018-07-01T05:30:23.949Z,1.70
2018-07-01T05:41:51.101Z,1.63
2018-07-01T05:44:19.932Z,1.70
2018-07-01T05:46:49.246Z,1.67
2018-07-01T05:49:18.238Z,1.80
2018-07-01T05:51:47.489Z,1.80
2018-07-01T05:54:16.550Z,1.90
2018-07-01T05:56:51.435Z,2.07
2018-07-01T05:59:20.479Z,1.90
2018-07-01T06:01:50.520Z,1.90
2018-07-01T06:04:20.632Z,1.90
2018-07-01T06:34:20.058Z,1.70
2018-07-01T06:36:49.020Z,1.80
2018-07-01T06:42:22.761Z,1.70
2018-07-01T06:44:51.711Z,1.60
2018-07-01T06:47:20.917Z,1.73
2018-07-01T06:49:49.867Z,1.67
2018-07-01T06:52:18.848Z,1.60
2018-07-01T06:54:47.854Z,1.70
2018-07-01T06:57:16.838Z,1.70
2018-07-01T06:59:45.769Z,1.80
2018-07-01T07:02:17.928Z,1.50
2018-07-01T07:04:46.856Z,1.80
2018-07-01T07:07:16.474Z,1.90
2018-07-01T07:09:45.415Z,1.60
2018-07-01T07:12:14.379Z,1.60
2018-07-01T07:14:43.362Z,1.50
2018-07-01T07:17:18.158Z,1.40
2018-07-01T07:19:47.150Z,1.40
2018-07-01T07:28:22.392Z,1.50
2018-07-01T07:30:51.547Z,1.67
2018-07-01T07:42:09.108Z,1.47
2018-07-01T07:56:48.969Z,1.20
2018-07-01T08:05:11.492Z,1.13
2018-07-01T08:07:40.453Z,1.20
2018-07-01T08:32:47.996Z,1.40
2018-07-01T08:35:38.320Z,1.30
2018-07-01T08:38:07.240Z,1.20
2018-07-01T08:40:36.120Z,1.20
2018-07-01T08:43:05.053Z,2.07
2018-07-01T08:52:06.128Z,1.37
2018-07-01T09:03:47.241Z,1.30
2018-07-01T09:15:33.894Z,1.50
2018-07-01T09:21:09.662Z,3.20
2018-07-01T09:26:42.265Z,1.20
2018-07-01T09:35:12.106Z,1.20
2018-07-01T09:37:41.223Z,1.20
2018-07-01T09:40:11.256Z,0.93
2018-07-01T09:42:40.285Z,1.10
2018-07-01T09:45:09.339Z,1.13
2018-07-01T09:47:38.280Z,1.20
2018-07-01T09:50:07.254Z,1.13
2018-07-01T09:52:36.334Z,1.20
2018-07-01T09:55:05.569Z,1.00
2018-07-01T09:57:34.516Z,1.37
2018-07-01T10:00:03.473Z,1.20
2018-07-01T10:02:34.012Z,1.27
2018-07-01T10:05:21.791Z,1.10
2018-07-01T10:25:44.020Z,1.00
2018-07-01T10:28:12.910Z,1.23
2018-07-01T10:30:41.792Z,1.10
2018-07-01T10:33:10.677Z,1.13
2018-07-01T10:35:39.563Z,1.10
2018-07-01T10:38:08.447Z,1.10
2018-07-01T10:40:37.443Z,1.33
2018-07-01T10:43:06.376Z,1.13
2018-07-01T10:45:35.287Z,1.20
2018-07-01T10:48:04.213Z,1.30
2018-07-01T10:50:33.138Z,1.30
2018-07-01T10:53:02.029Z,1.40
2018-07-01T10:55:30.948Z,1.47
2018-07-01T10:57:59.848Z,1.23
2018-07-01T11:00:28.769Z,1.00
2018-07-01T11:02:58.004Z,1.20
2018-07-01T11:05:39.364Z,1.10
2018-07-01T11:08:08.261Z,1.00
2018-07-01T11:10:42.809Z,1.10
2018-07-01T11:13:11.733Z,1.50
2018-07-01T11:15:40.682Z,1.10
2018-07-01T11:18:09.600Z,1.20
2018-07-01T11:20:38.696Z,1.20
2018-07-01T11:23:07.606Z,1.20
2018-07-01T11:25:36.534Z,1.20
2018-07-01T11:28:05.464Z,1.13
2018-07-01T11:30:34.409Z,1.30
2018-07-01T11:33:04.236Z,1.63
2018-07-01T11:35:33.183Z,6.13
2018-07-01T11:38:02.133Z,1.40
2018-07-01T11:40:31.061Z,1.30
2018-07-01T11:43:00.001Z,1.17
2018-07-01T11:45:28.986Z,1.67
2018-07-01T11:47:57.954Z,1.20
2018-07-01T11:50:27.060Z,1.40
2018-07-01T11:52:56.006Z,1.10
2018-07-01T11:55:24.932Z,1.77
2018-07-01T11:57:54.166Z,1.30
2018-07-01T12:00:23.091Z,1.13
2018-07-01T12:02:52.736Z,1.20
2018-07-01T12:05:21.734Z,1.33
2018-07-01T12:07:50.898Z,1.10
2018-07-01T12:10:19.956Z,1.27
2018-07-01T12:12:48.880Z,1.27
2018-07-01T12:15:18.033Z,1.20
2018-07-01T12:17:46.996Z,1.07
2018-07-01T12:20:15.945Z,1.20
2018-07-01T12:22:44.880Z,1.30
2018-07-01T12:25:14.006Z,1.20
2018-07-01T12:27:42.941Z,1.23
2018-07-01T12:30:11.936Z,1.40
2018-07-01T12:32:40.990Z,1.40
2018-07-01T12:35:10.665Z,1.20
2018-07-01T12:37:39.588Z,1.33
2018-07-01T12:40:08.492Z,1.30
2018-07-01T12:42:37.394Z,1.20
2018-07-01T12:45:06.325Z,1.20
2018-07-01T12:47:35.242Z,1.30
2018-07-01T12:50:04.291Z,1.60
2018-07-01T12:52:33.188Z,1.30
2018-07-01T12:55:02.142Z,1.20
2018-07-01T12:57:31.029Z,1.30
2018-07-01T12:59:59.920Z,1.20
2018-07-01T13:02:28.826Z,1.20
2018-07-01T13:04:57.707Z,1.27
2018-07-01T13:07:26.610Z,1.17
2018-07-01T13:09:55.541Z,1.60
2018-07-01T13:12:24.467Z,1.37
2018-07-01T13:14:53.383Z,1.20
2018-07-01T13:17:22.286Z,1.30
2018-07-01T13:19:51.211Z,1.47
2018-07-01T13:22:20.105Z,1.23
2018-07-01T13:24:48.997Z,1.40
2018-07-01T13:27:17.912Z,1.30
2018-07-01T13:29:46.892Z,1.60
2018-07-01T13:32:15.771Z,1.50
2018-07-01T13:34:44.675Z,1.60
2018-07-01T13:37:13.568Z,1.30
2018-07-01T13:39:42.460Z,1.20
2018-07-01T13:42:11.398Z,1.87
2018-07-01T13:44:40.294Z,1.90
2018-07-01T13:47:09.445Z,1.70
2018-07-01T13:49:38.395Z,1.77
2018-07-01T13:52:07.355Z,1.70
2018-07-01T13:54:36.257Z,1.70
2018-07-01T13:57:05.456Z,1.70
2018-07-01T13:59:34.306Z,1.77
2018-07-01T14:02:03.224Z,1.60
2018-07-01T14:04:32.132Z,1.50
2018-07-01T14:07:01.024Z,1.60
2018-07-01T14:09:29.940Z,1.53
2018-07-01T14:11:58.848Z,1.50
2018-07-01T14:14:28.384Z,1.30
2018-07-01T14:16:57.352Z,1.53
2018-07-01T14:19:26.254Z,1.77
2018-07-01T14:21:55.145Z,1.60
2018-07-01T14:24:24.024Z,1.50
2018-07-01T14:26:52.930Z,1.53
2018-07-01T14:29:21.789Z,1.83
2018-07-01T14:31:50.673Z,1.97
2018-07-01T14:34:19.564Z,1.30
2018-07-01T14:36:48.446Z,1.70
2018-07-01T14:39:17.326Z,2.23
2018-07-01T14:41:46.220Z,1.40
2018-07-01T14:44:15.098Z,1.67
2018-07-01T14:46:44.009Z,1.37
2018-07-01T14:49:12.941Z,1.33
2018-07-01T14:51:41.823Z,1.40
2018-07-01T14:54:10.699Z,1.30
2018-07-01T14:56:39.591Z,1.60
2018-07-01T14:59:08.473Z,1.40
2018-07-01T15:01:37.360Z,1.80
2018-07-01T15:04:06.244Z,1.80
2018-07-01T15:06:35.163Z,1.80
2018-07-01T15:09:06.469Z,1.33
2018-07-01T15:11:35.360Z,1.40
2018-07-01T15:14:04.468Z,1.70
2018-07-01T15:16:34.245Z,1.60
2018-07-01T15:19:03.163Z,1.50
2018-07-01T15:21:32.191Z,2.00
2018-07-01T15:24:01.090Z,1.50
2018-07-01T15:26:30.044Z,1.60
2018-07-01T15:28:59.009Z,1.77
2018-07-01T15:31:27.905Z,1.80
2018-07-01T15:33:56.791Z,2.30
2018-07-01T15:36:25.691Z,2.30
2018-07-01T15:38:54.591Z,1.57
2018-07-01T15:41:23.480Z,2.03
2018-07-01T15:43:52.381Z,1.40
2018-07-01T15:46:22.278Z,1.67
2018-07-01T15:48:51.177Z,1.60
2018-07-01T15:51:20.071Z,1.53
2018-07-01T15:53:49.699Z,1.70
2018-07-01T15:56:18.608Z,1.30
2018-07-01T15:58:47.515Z,1.50
2018-07-01T16:01:16.473Z,1.40
2018-07-01T16:03:45.412Z,1.50
2018-07-01T16:06:14.334Z,1.30
2018-07-01T16:08:43.272Z,1.50
2018-07-01T16:11:12.227Z,1.40
2018-07-01T16:13:41.125Z,1.43
2018-07-01T16:19:13.073Z,1.40
2018-07-01T16:21:43.578Z,1.40
2018-07-01T16:24:13.131Z,1.60
2018-07-01T16:26:47.592Z,1.50
2018-07-01T16:32:20.958Z,1.30
2018-07-01T16:34:50.033Z,1.50
2018-07-01T16:37:18.969Z,1.37
2018-07-01T16:39:48.002Z,1.57
2018-07-01T16:45:03.822Z,1.50
2018-07-01T16:47:32.764Z,1.47
2018-07-01T16:50:01.714Z,1.50
2018-07-01T16:52:30.679Z,1.50
2018-07-01T16:54:59.897Z,1.57
2018-07-01T16:57:28.847Z,1.30
2018-07-01T16:59:57.776Z,1.33
2018-07-01T17:02:26.751Z,1.50
2018-07-01T17:04:55.688Z,1.37
2018-07-01T17:07:24.647Z,1.40
2018-07-01T17:09:53.592Z,1.50
2018-07-01T17:12:22.544Z,1.50
2018-07-01T17:14:51.425Z,1.50
2018-07-01T17:17:20.316Z,1.60
2018-07-01T17:19:49.873Z,1.60
2018-07-01T17:22:18.837Z,1.40
2018-07-01T17:24:47.659Z,1.50
2018-07-01T17:27:29.565Z,1.47
2018-07-01T17:29:59.093Z,1.40
2018-07-01T17:32:33.605Z,1.50
2018-07-01T17:35:03.018Z,1.57
2018-07-01T17:40:36.868Z,1.40
2018-07-01T17:43:09.352Z,1.43
2018-07-01T17:45:48.772Z,1.40
2018-07-01T17:54:28.286Z,1.63
2018-07-01T17:59:42.708Z,1.70
2018-07-01T18:02:12.732Z,1.40
2018-07-01T18:04:41.897Z,1.50
2018-07-01T18:07:11.125Z,1.60
2018-07-01T18:09:40.716Z,1.50
2018-07-01T18:12:18.713Z,1.40
2018-07-01T18:14:47.630Z,1.57
2018-07-01T18:17:17.153Z,1.60
2018-07-01T18:19:49.557Z,1.50
2018-07-01T18:25:28.487Z,1.47
2018-07-01T18:28:15.016Z,1.30
2018-07-01T18:42:48.999Z,1.93
2018-07-01T18:45:18.997Z,1.70
2018-07-01T18:50:27.953Z,1.60
2018-07-01T18:52:58.922Z,1.70
2018-07-01T18:55:28.548Z,1.40
2018-07-01T19:13:16.655Z,1.50
2018-07-01T19:18:48.076Z,1.80
2018-07-01T19:21:17.211Z,1.57
2018-07-01T19:32:28.164Z,1.40
2018-07-01T19:34:57.143Z,1.60
2018-07-01T19:37:26.119Z,1.50
2018-07-01T19:39:55.010Z,1.30
2018-07-01T19:42:46.955Z,1.30
2018-07-01T19:54:16.455Z,1.40
2018-07-01T20:00:02.598Z,1.63
2018-07-01T20:02:44.103Z,1.20
2018-07-01T20:05:17.540Z,1.60
2018-07-01T20:10:54.155Z,1.40
2018-07-01T20:38:24.260Z,1.40
2018-07-01T20:40:53.143Z,1.50
2018-07-01T20:43:22.054Z,1.63
2018-07-01T20:45:50.938Z,1.67
2018-07-01T20:48:19.860Z,1.57
2018-07-01T20:50:48.745Z,1.50
2018-07-01T20:53:17.641Z,1.30
2018-07-01T20:55:46.533Z,1.43
2018-07-01T20:58:15.811Z,1.73
2018-07-01T21:00:44.701Z,1.40
2018-07-01T21:03:13.593Z,1.57
2018-07-01T21:05:42.521Z,1.33
2018-07-01T21:08:12.475Z,1.40
2018-07-01T21:10:42.040Z,1.47
2018-07-01T21:13:10.943Z,1.40
2018-07-01T21:15:39.845Z,1.40
2018-07-01T21:18:08.720Z,1.40
2018-07-01T21:20:37.660Z,1.43
2018-07-01T21:23:06.567Z,1.70
2018-07-01T21:25:35.448Z,1.50
2018-07-01T21:28:04.347Z,1.70
2018-07-01T21:33:36.763Z,1.50
2018-07-01T21:36:07.603Z,1.43
2018-07-01T21:38:49.326Z,1.50
2018-07-01T21:49:59.018Z,1.50
2018-07-01T21:52:27.944Z,1.50
2018-07-01T21:54:57.353Z,1.50
2018-07-01T22:00:33.630Z,1.50
2018-07-01T22:03:04.063Z,1.60
2018-07-01T22:05:33.608Z,1.43
2018-07-01T22:10:52.892Z,1.50
2018-07-01T22:14:15.338Z,1.60
2018-07-01T22:16:44.833Z,1.57
2018-07-01T22:19:14.759Z,1.40
2018-07-01T22:21:44.077Z,1.70
2018-07-01T22:24:13.890Z,1.40
2018-07-01T22:26:43.160Z,1.50
2018-07-01T22:29:13.966Z,1.30
2018-07-01T22:31:42.906Z,1.37
2018-07-01T22:34:12.971Z,1.60
2018-07-01T22:36:42.729Z,1.50
2018-07-01T22:39:13.809Z,1.50
2018-07-01T22:41:43.568Z,1.37
2018-07-01T22:44:18.675Z,1.47
2018-07-01T22:46:48.121Z,1.77
2018-07-01T22:49:17.057Z,1.50
2018-07-01T22:51:45.979Z,1.50
2018-07-01T22:54:15.006Z,1.77
2018-07-01T22:56:43.984Z,1.60
2018-07-01T22:59:13.500Z,1.70
2018-07-01T23:03:49.991Z,1.50
2018-07-01T23:06:19.006Z,1.50
2018-07-01T23:08:47.902Z,1.93
2018-07-01T23:11:16.971Z,1.70
2018-07-01T23:13:45.909Z,1.60
2018-07-01T23:16:14.811Z,1.60
2018-07-01T23:18:43.694Z,2.00
2018-07-01T23:21:13.088Z,1.80
2018-07-01T23:23:42.113Z,2.30
2018-07-01T23:26:11.296Z,2.33
2018-07-01T23:28:40.315Z,2.47
2018-07-01T23:31:09.564Z,2.33
2018-07-01T23:33:38.469Z,2.80
2018-07-01T23:36:07.508Z,2.93
2018-07-01T23:38:36.445Z,3.03
2018-07-01T23:41:05.396Z,3.17
2018-07-01T23:43:34.323Z,3.40
2018-07-01T23:46:03.245Z,3.80
2018-07-01T23:48:32.146Z,3.80
2018-07-01T23:51:01.044Z,4.40
2018-07-01T23:53:29.932Z,4.20
2018-07-01T23:55:58.909Z,4.10
2018-07-01T23:58:27.793Z,4.47
